sensor_id;sensor_type;location;lat;lon;timestamp;P1;durP1;ratioP1;P2;durP2;ratioP2
35699;SDS011;21818;51.078;12.108;2022-10-16T00:01:57;0.30;;;0.20;;
35699;SDS011;21818;51.078;12.108;2022-10-16T00:04:23;2.17;;;0.30;;
35699;SDS011;21818;51.078;12.108;2022-10-16T00:06:49;0.70;;;0.40;;
35699;SDS011;21818;51.078;12.108;2022-10-16T00:09:14;0.60;;;0.40;;
35699;SDS011;21818;51.078;12.108;2022-10-16T00:11:41;0.70;;;0.35;;
35699;SDS011;21818;51.078;12.108;2022-10-16T00:14:10;1.02;;;0.20;;
35699;SDS011;21818;51.078;12.108;2022-10-16T00:16:39;1.40;;;0.40;;
35699;SDS011;21818;51.078;12.108;2022-10-16T00:19:05;0.57;;;0.28;;
35699;SDS011;21818;51.078;12.108;2022-10-16T00:21:31;0.52;;;0.32;;
35699;SDS011;21818;51.078;12.108;2022-10-16T00:24:00;1.77;;;0.40;;
35699;SDS011;21818;51.078;12.108;2022-10-16T00:26:31;0.90;;;0.40;;
35699;SDS011;21818;51.078;12.108;2022-10-16T00:28:58;4.90;;;1.40;;
35699;SDS011;21818;51.078;12.108;2022-10-16T00:31:24;1.15;;;0.35;;
35699;SDS011;21818;51.078;12.108;2022-10-16T00:33:50;0.20;;;0.20;;
35699;SDS011;21818;51.078;12.108;2022-10-16T00:36:17;0.68;;;0.30;;
35699;SDS011;21818;51.078;12.108;2022-10-16T00:38:45;1.27;;;0.35;;
35699;SDS011;21818;51.078;12.108;2022-10-16T00:41:12;1.55;;;0.30;;
35699;SDS011;21818;51.078;12.108;2022-10-16T00:43:44;2.05;;;0.25;;
35699;SDS011;21818;51.078;12.108;2022-10-16T00:46:16;0.60;;;0.30;;
35699;SDS011;21818;51.078;12.108;2022-10-16T00:49:29;1.33;;;0.85;;
35699;SDS011;21818;51.078;12.108;2022-10-16T00:51:32;1.00;;;0.40;;
35699;SDS011;21818;51.078;12.108;2022-10-16T00:54:48;2.88;;;0.52;;
35699;SDS011;21818;51.078;12.108;2022-10-16T00:56:56;1.67;;;0.70;;
35699;SDS011;21818;51.078;12.108;2022-10-16T00:59:27;0.45;;;0.38;;
35699;SDS011;21818;51.078;12.108;2022-10-16T01:01:58;1.58;;;0.40;;
35699;SDS011;21818;51.078;12.108;2022-10-16T01:04:25;1.17;;;0.40;;
35699;SDS011;21818;51.078;12.108;2022-10-16T01:12:44;2.10;;;0.35;;
35699;SDS011;21818;51.078;12.108;2022-10-16T01:20:33;5.40;;;0.38;;
35699;SDS011;21818;51.078;12.108;2022-10-16T01:28:28;0.68;;;0.40;;
35699;SDS011;21818;51.078;12.108;2022-10-16T01:31:10;0.57;;;0.38;;
35699;SDS011;21818;51.078;12.108;2022-10-16T01:33:43;0.63;;;0.30;;
35699;SDS011;21818;51.078;12.108;2022-10-16T01:36:13;1.48;;;0.30;;
35699;SDS011;21818;51.078;12.108;2022-10-16T01:38:43;0.45;;;0.30;;
35699;SDS011;21818;51.078;12.108;2022-10-16T01:41:13;1.85;;;0.22;;
35699;SDS011;21818;51.078;12.108;2022-10-16T01:43:46;0.70;;;0.43;;
35699;SDS011;21818;51.078;12.108;2022-10-16T01:46:18;0.60;;;0.35;;
35699;SDS011;21818;51.078;12.108;2022-10-16T01:48:45;1.48;;;0.20;;
35699;SDS011;21818;51.078;12.108;2022-10-16T01:51:13;0.68;;;0.30;;
35699;SDS011;21818;51.078;12.108;2022-10-16T01:53:41;1.02;;;0.40;;
35699;SDS011;21818;51.078;12.108;2022-10-16T01:56:12;0.70;;;0.50;;
35699;SDS011;21818;51.078;12.108;2022-10-16T01:58:42;0.75;;;0.22;;
35699;SDS011;21818;51.078;12.108;2022-10-16T02:01:29;1.95;;;0.40;;
35699;SDS011;21818;51.078;12.108;2022-10-16T02:03:59;0.13;;;0.10;;
35699;SDS011;21818;51.078;12.108;2022-10-16T02:06:29;1.63;;;0.50;;
35699;SDS011;21818;51.078;12.108;2022-10-16T02:08:55;1.08;;;0.60;;
35699;SDS011;21818;51.078;12.108;2022-10-16T02:11:20;0.40;;;0.20;;
35699;SDS011;21818;51.078;12.108;2022-10-16T02:13:46;0.93;;;0.30;;
35699;SDS011;21818;51.078;12.108;2022-10-16T02:16:16;1.38;;;0.40;;
35699;SDS011;21818;51.078;12.108;2022-10-16T02:18:42;0.40;;;0.30;;
35699;SDS011;21818;51.078;12.108;2022-10-16T02:21:14;2.75;;;0.30;;
35699;SDS011;21818;51.078;12.108;2022-10-16T02:26:36;0.30;;;0.20;;
35699;SDS011;21818;51.078;12.108;2022-10-16T02:29:10;2.00;;;0.40;;
35699;SDS011;21818;51.078;12.108;2022-10-16T02:31:41;2.25;;;0.60;;
35699;SDS011;21818;51.078;12.108;2022-10-16T02:34:10;1.38;;;0.38;;
35699;SDS011;21818;51.078;12.108;2022-10-16T02:36:37;1.00;;;0.45;;
35699;SDS011;21818;51.078;12.108;2022-10-16T02:39:05;2.08;;;0.30;;
35699;SDS011;21818;51.078;12.108;2022-10-16T02:41:31;0.30;;;0.30;;
35699;SDS011;21818;51.078;12.108;2022-10-16T02:43:57;1.00;;;0.35;;
35699;SDS011;21818;51.078;12.108;2022-10-16T02:46:23;0.75;;;0.43;;
35699;SDS011;21818;51.078;12.108;2022-10-16T02:48:49;1.88;;;0.25;;
35699;SDS011;21818;51.078;12.108;2022-10-16T02:51:14;1.08;;;0.38;;
35699;SDS011;21818;51.078;12.108;2022-10-16T02:53:40;0.52;;;0.30;;
35699;SDS011;21818;51.078;12.108;2022-10-16T02:56:05;1.55;;;0.40;;
35699;SDS011;21818;51.078;12.108;2022-10-16T02:58:31;0.32;;;0.15;;
35699;SDS011;21818;51.078;12.108;2022-10-16T03:00:57;0.43;;;0.40;;
35699;SDS011;21818;51.078;12.108;2022-10-16T03:03:22;1.08;;;0.43;;
35699;SDS011;21818;51.078;12.108;2022-10-16T03:05:48;4.70;;;0.50;;
35699;SDS011;21818;51.078;12.108;2022-10-16T03:08:14;0.75;;;0.32;;
35699;SDS011;21818;51.078;12.108;2022-10-16T03:10:39;1.67;;;0.50;;
35699;SDS011;21818;51.078;12.108;2022-10-16T03:13:05;1.35;;;0.40;;
35699;SDS011;21818;51.078;12.108;2022-10-16T03:15:30;0.77;;;0.40;;
35699;SDS011;21818;51.078;12.108;2022-10-16T03:17:59;0.47;;;0.30;;
35699;SDS011;21818;51.078;12.108;2022-10-16T03:20:25;0.20;;;0.20;;
35699;SDS011;21818;51.078;12.108;2022-10-16T03:22:51;0.50;;;0.40;;
35699;SDS011;21818;51.078;12.108;2022-10-16T03:25:17;0.85;;;0.22;;
35699;SDS011;21818;51.078;12.108;2022-10-16T03:27:42;0.47;;;0.28;;
35699;SDS011;21818;51.078;12.108;2022-10-16T03:30:08;1.40;;;0.40;;
35699;SDS011;21818;51.078;12.108;2022-10-16T03:32:34;0.22;;;0.22;;
35699;SDS011;21818;51.078;12.108;2022-10-16T03:35:00;1.58;;;0.40;;
35699;SDS011;21818;51.078;12.108;2022-10-16T03:37:25;1.10;;;0.30;;
35699;SDS011;21818;51.078;12.108;2022-10-16T03:39:51;2.05;;;0.40;;
35699;SDS011;21818;51.078;12.108;2022-10-16T03:42:17;0.77;;;0.38;;
35699;SDS011;21818;51.078;12.108;2022-10-16T03:44:43;1.00;;;0.60;;
35699;SDS011;21818;51.078;12.108;2022-10-16T03:47:09;0.77;;;0.30;;
35699;SDS011;21818;51.078;12.108;2022-10-16T03:49:34;0.98;;;0.30;;
35699;SDS011;21818;51.078;12.108;2022-10-16T03:52:00;0.60;;;0.20;;
35699;SDS011;21818;51.078;12.108;2022-10-16T03:54:25;0.40;;;0.30;;
35699;SDS011;21818;51.078;12.108;2022-10-16T03:56:51;0.40;;;0.30;;
35699;SDS011;21818;51.078;12.108;2022-10-16T03:59:16;2.05;;;0.40;;
35699;SDS011;21818;51.078;12.108;2022-10-16T04:01:42;0.85;;;0.20;;
35699;SDS011;21818;51.078;12.108;2022-10-16T04:04:08;1.75;;;0.20;;
35699;SDS011;21818;51.078;12.108;2022-10-16T04:06:33;0.30;;;0.30;;
35699;SDS011;21818;51.078;12.108;2022-10-16T04:08:59;0.80;;;0.30;;
35699;SDS011;21818;51.078;12.108;2022-10-16T04:11:25;1.15;;;0.40;;
35699;SDS011;21818;51.078;12.108;2022-10-16T04:13:50;2.10;;;0.30;;
35699;SDS011;21818;51.078;12.108;2022-10-16T04:16:16;0.80;;;0.40;;
35699;SDS011;21818;51.078;12.108;2022-10-16T04:18:42;1.70;;;0.40;;
35699;SDS011;21818;51.078;12.108;2022-10-16T04:21:07;0.40;;;0.40;;
35699;SDS011;21818;51.078;12.108;2022-10-16T04:23:33;1.10;;;0.40;;
35699;SDS011;21818;51.078;12.108;2022-10-16T04:25:59;0.40;;;0.20;;
35699;SDS011;21818;51.078;12.108;2022-10-16T04:28:25;3.13;;;0.30;;
35699;SDS011;21818;51.078;12.108;2022-10-16T04:30:51;0.50;;;0.20;;
35699;SDS011;21818;51.078;12.108;2022-10-16T04:33:17;0.57;;;0.32;;
35699;SDS011;21818;51.078;12.108;2022-10-16T04:35:43;1.42;;;0.40;;
35699;SDS011;21818;51.078;12.108;2022-10-16T04:38:08;0.50;;;0.20;;
35699;SDS011;21818;51.078;12.108;2022-10-16T04:40:34;2.75;;;0.32;;
35699;SDS011;21818;51.078;12.108;2022-10-16T04:43:03;0.20;;;0.20;;
35699;SDS011;21818;51.078;12.108;2022-10-16T04:45:29;0.43;;;0.30;;
35699;SDS011;21818;51.078;12.108;2022-10-16T04:47:58;1.90;;;0.40;;
35699;SDS011;21818;51.078;12.108;2022-10-16T04:50:24;3.53;;;0.40;;
35699;SDS011;21818;51.078;12.108;2022-10-16T04:52:50;0.20;;;0.20;;
35699;SDS011;21818;51.078;12.108;2022-10-16T04:55:15;0.55;;;0.28;;
35699;SDS011;21818;51.078;12.108;2022-10-16T04:57:41;0.40;;;0.30;;
35699;SDS011;21818;51.078;12.108;2022-10-16T05:00:07;4.22;;;0.50;;
35699;SDS011;21818;51.078;12.108;2022-10-16T05:02:33;1.75;;;0.50;;
35699;SDS011;21818;51.078;12.108;2022-10-16T05:04:59;1.10;;;0.30;;
35699;SDS011;21818;51.078;12.108;2022-10-16T05:07:24;0.30;;;0.30;;
35699;SDS011;21818;51.078;12.108;2022-10-16T05:09:50;0.28;;;0.25;;
35699;SDS011;21818;51.078;12.108;2022-10-16T05:12:16;0.43;;;0.38;;
35699;SDS011;21818;51.078;12.108;2022-10-16T05:14:42;2.33;;;0.30;;
35699;SDS011;21818;51.078;12.108;2022-10-16T05:17:07;0.98;;;0.40;;
35699;SDS011;21818;51.078;12.108;2022-10-16T05:19:33;2.42;;;0.32;;
35699;SDS011;21818;51.078;12.108;2022-10-16T05:21:58;0.35;;;0.20;;
35699;SDS011;21818;51.078;12.108;2022-10-16T05:24:24;0.60;;;0.50;;
35699;SDS011;21818;51.078;12.108;2022-10-16T05:26:50;0.80;;;0.28;;
35699;SDS011;21818;51.078;12.108;2022-10-16T05:29:16;2.10;;;0.25;;
35699;SDS011;21818;51.078;12.108;2022-10-16T05:31:42;0.50;;;0.40;;
35699;SDS011;21818;51.078;12.108;2022-10-16T05:34:07;0.73;;;0.40;;
35699;SDS011;21818;51.078;12.108;2022-10-16T05:36:33;1.38;;;0.40;;
35699;SDS011;21818;51.078;12.108;2022-10-16T05:38:58;0.30;;;0.30;;
35699;SDS011;21818;51.078;12.108;2022-10-16T05:41:24;1.10;;;0.43;;
35699;SDS011;21818;51.078;12.108;2022-10-16T05:43:51;1.40;;;0.30;;
35699;SDS011;21818;51.078;12.108;2022-10-16T05:46:18;1.85;;;0.40;;
35699;SDS011;21818;51.078;12.108;2022-10-16T05:48:43;2.58;;;0.40;;
35699;SDS011;21818;51.078;12.108;2022-10-16T05:51:09;0.47;;;0.30;;
35699;SDS011;21818;51.078;12.108;2022-10-16T05:53:37;0.47;;;0.30;;
35699;SDS011;21818;51.078;12.108;2022-10-16T05:56:04;2.45;;;0.30;;
35699;SDS011;21818;51.078;12.108;2022-10-16T05:58:32;1.17;;;0.50;;
35699;SDS011;21818;51.078;12.108;2022-10-16T06:01:01;0.60;;;0.20;;
35699;SDS011;21818;51.078;12.108;2022-10-16T06:03:28;0.85;;;0.28;;
35699;SDS011;21818;51.078;12.108;2022-10-16T06:05:54;0.47;;;0.30;;
35699;SDS011;21818;51.078;12.108;2022-10-16T06:08:20;6.07;;;0.47;;
35699;SDS011;21818;51.078;12.108;2022-10-16T06:10:47;0.40;;;0.30;;
35699;SDS011;21818;51.078;12.108;2022-10-16T06:13:13;1.45;;;0.47;;
35699;SDS011;21818;51.078;12.108;2022-10-16T06:15:39;0.60;;;0.32;;
35699;SDS011;21818;51.078;12.108;2022-10-16T06:18:10;0.45;;;0.30;;
35699;SDS011;21818;51.078;12.108;2022-10-16T06:20:36;2.55;;;0.35;;
35699;SDS011;21818;51.078;12.108;2022-10-16T06:23:02;1.55;;;0.45;;
35699;SDS011;21818;51.078;12.108;2022-10-16T06:25:29;1.35;;;0.68;;
35699;SDS011;21818;51.078;12.108;2022-10-16T06:27:56;4.60;;;0.40;;
35699;SDS011;21818;51.078;12.108;2022-10-16T06:30:22;0.52;;;0.38;;
35699;SDS011;21818;51.078;12.108;2022-10-16T06:32:47;0.40;;;0.22;;
35699;SDS011;21818;51.078;12.108;2022-10-16T06:35:13;0.60;;;0.20;;
35699;SDS011;21818;51.078;12.108;2022-10-16T06:37:39;0.50;;;0.40;;
35699;SDS011;21818;51.078;12.108;2022-10-16T06:40:04;5.60;;;1.27;;
35699;SDS011;21818;51.078;12.108;2022-10-16T06:42:31;0.35;;;0.30;;
35699;SDS011;21818;51.078;12.108;2022-10-16T06:44:56;2.10;;;0.30;;
35699;SDS011;21818;51.078;12.108;2022-10-16T06:47:22;1.20;;;0.20;;
35699;SDS011;21818;51.078;12.108;2022-10-16T06:49:48;0.70;;;0.38;;
35699;SDS011;21818;51.078;12.108;2022-10-16T06:52:14;1.33;;;0.20;;
35699;SDS011;21818;51.078;12.108;2022-10-16T06:54:39;0.20;;;0.20;;
35699;SDS011;21818;51.078;12.108;2022-10-16T06:57:05;0.40;;;0.20;;
35699;SDS011;21818;51.078;12.108;2022-10-16T06:59:30;0.60;;;0.20;;
35699;SDS011;21818;51.078;12.108;2022-10-16T07:01:56;0.55;;;0.38;;
35699;SDS011;21818;51.078;12.108;2022-10-16T07:04:22;0.85;;;0.20;;
35699;SDS011;21818;51.078;12.108;2022-10-16T07:06:47;2.47;;;0.35;;
35699;SDS011;21818;51.078;12.108;2022-10-16T07:09:13;0.73;;;0.40;;
35699;SDS011;21818;51.078;12.108;2022-10-16T07:11:39;1.00;;;0.30;;
35699;SDS011;21818;51.078;12.108;2022-10-16T07:14:08;0.88;;;0.30;;
35699;SDS011;21818;51.078;12.108;2022-10-16T07:16:40;0.40;;;0.32;;
35699;SDS011;21818;51.078;12.108;2022-10-16T07:19:06;0.60;;;0.30;;
35699;SDS011;21818;51.078;12.108;2022-10-16T07:21:33;0.93;;;0.40;;
35699;SDS011;21818;51.078;12.108;2022-10-16T07:24:03;0.60;;;0.40;;
35699;SDS011;21818;51.078;12.108;2022-10-16T07:26:31;1.45;;;0.30;;
35699;SDS011;21818;51.078;12.108;2022-10-16T07:28:58;1.67;;;0.40;;
35699;SDS011;21818;51.078;12.108;2022-10-16T07:31:25;0.45;;;0.30;;
35699;SDS011;21818;51.078;12.108;2022-10-16T07:33:51;0.68;;;0.30;;
35699;SDS011;21818;51.078;12.108;2022-10-16T07:36:17;0.30;;;0.30;;
35699;SDS011;21818;51.078;12.108;2022-10-16T07:38:44;0.50;;;0.30;;
35699;SDS011;21818;51.078;12.108;2022-10-16T07:41:13;1.63;;;0.30;;
35699;SDS011;21818;51.078;12.108;2022-10-16T07:43:40;0.70;;;0.30;;
35699;SDS011;21818;51.078;12.108;2022-10-16T07:46:14;0.25;;;0.25;;
35699;SDS011;21818;51.078;12.108;2022-10-16T07:48:41;0.52;;;0.20;;
35699;SDS011;21818;51.078;12.108;2022-10-16T07:51:10;0.32;;;0.20;;
35699;SDS011;21818;51.078;12.108;2022-10-16T07:53:36;0.20;;;0.20;;
35699;SDS011;21818;51.078;12.108;2022-10-16T07:56:05;0.20;;;0.20;;
35699;SDS011;21818;51.078;12.108;2022-10-16T07:58:33;0.50;;;0.30;;
35699;SDS011;21818;51.078;12.108;2022-10-16T08:01:05;0.75;;;0.25;;
35699;SDS011;21818;51.078;12.108;2022-10-16T08:03:35;0.68;;;0.20;;
35699;SDS011;21818;51.078;12.108;2022-10-16T08:06:01;1.50;;;0.40;;
35699;SDS011;21818;51.078;12.108;2022-10-16T08:08:28;2.75;;;0.30;;
35699;SDS011;21818;51.078;12.108;2022-10-16T08:10:54;0.47;;;0.30;;
35699;SDS011;21818;51.078;12.108;2022-10-16T08:13:20;0.75;;;0.20;;
35699;SDS011;21818;51.078;12.108;2022-10-16T08:15:46;1.55;;;0.10;;
35699;SDS011;21818;51.078;12.108;2022-10-16T08:18:12;0.82;;;0.38;;
35699;SDS011;21818;51.078;12.108;2022-10-16T08:20:40;0.68;;;0.40;;
35699;SDS011;21818;51.078;12.108;2022-10-16T08:23:07;1.25;;;0.35;;
35699;SDS011;21818;51.078;12.108;2022-10-16T08:25:34;0.50;;;0.30;;
35699;SDS011;21818;51.078;12.108;2022-10-16T08:28:02;0.40;;;0.30;;
35699;SDS011;21818;51.078;12.108;2022-10-16T08:30:29;0.35;;;0.28;;
35699;SDS011;21818;51.078;12.108;2022-10-16T08:32:55;1.42;;;0.30;;
35699;SDS011;21818;51.078;12.108;2022-10-16T08:35:20;1.13;;;0.40;;
35699;SDS011;21818;51.078;12.108;2022-10-16T08:37:46;0.88;;;0.40;;
35699;SDS011;21818;51.078;12.108;2022-10-16T08:40:27;2.42;;;0.22;;
35699;SDS011;21818;51.078;12.108;2022-10-16T08:51:04;2.17;;;0.40;;
35699;SDS011;21818;51.078;12.108;2022-10-16T08:53:36;2.05;;;0.35;;
35699;SDS011;21818;51.078;12.108;2022-10-16T08:56:09;0.80;;;0.40;;
35699;SDS011;21818;51.078;12.108;2022-10-16T08:58:35;2.97;;;0.50;;
35699;SDS011;21818;51.078;12.108;2022-10-16T09:01:02;1.27;;;0.50;;
35699;SDS011;21818;51.078;12.108;2022-10-16T09:11:52;1.25;;;0.40;;
35699;SDS011;21818;51.078;12.108;2022-10-16T09:20:06;0.85;;;0.65;;
35699;SDS011;21818;51.078;12.108;2022-10-16T09:22:51;0.40;;;0.30;;
35699;SDS011;21818;51.078;12.108;2022-10-16T09:25:23;0.60;;;0.45;;
35699;SDS011;21818;51.078;12.108;2022-10-16T09:27:48;0.40;;;0.30;;
35699;SDS011;21818;51.078;12.108;2022-10-16T09:30:19;0.93;;;0.40;;
35699;SDS011;21818;51.078;12.108;2022-10-16T09:32:47;1.20;;;0.40;;
35699;SDS011;21818;51.078;12.108;2022-10-16T09:35:17;0.80;;;0.50;;
35699;SDS011;21818;51.078;12.108;2022-10-16T09:37:47;1.23;;;0.52;;
35699;SDS011;21818;51.078;12.108;2022-10-16T09:43:01;2.40;;;0.65;;
35699;SDS011;21818;51.078;12.108;2022-10-16T09:45:27;1.02;;;0.32;;
35699;SDS011;21818;51.078;12.108;2022-10-16T09:47:53;0.80;;;0.70;;
35699;SDS011;21818;51.078;12.108;2022-10-16T09:55:16;1.02;;;0.50;;
35699;SDS011;21818;51.078;12.108;2022-10-16T09:57:52;0.63;;;0.50;;
35699;SDS011;21818;51.078;12.108;2022-10-16T10:00:19;2.55;;;0.40;;
35699;SDS011;21818;51.078;12.108;2022-10-16T10:02:46;0.45;;;0.40;;
35699;SDS011;21818;51.078;12.108;2022-10-16T10:05:18;0.30;;;0.30;;
35699;SDS011;21818;51.078;12.108;2022-10-16T10:07:52;0.40;;;0.30;;
35699;SDS011;21818;51.078;12.108;2022-10-16T10:10:21;3.00;;;0.40;;
35699;SDS011;21818;51.078;12.108;2022-10-16T10:12:48;0.63;;;0.50;;
35699;SDS011;21818;51.078;12.108;2022-10-16T10:15:14;0.38;;;0.35;;
35699;SDS011;21818;51.078;12.108;2022-10-16T10:17:53;4.72;;;2.17;;
35699;SDS011;21818;51.078;12.108;2022-10-16T10:20:27;0.70;;;0.40;;
35699;SDS011;21818;51.078;12.108;2022-10-16T10:22:55;0.43;;;0.30;;
35699;SDS011;21818;51.078;12.108;2022-10-16T10:33:28;0.75;;;0.50;;
35699;SDS011;21818;51.078;12.108;2022-10-16T10:47:47;0.50;;;0.40;;
35699;SDS011;21818;51.078;12.108;2022-10-16T10:50:26;2.10;;;0.50;;
35699;SDS011;21818;51.078;12.108;2022-10-16T10:55:51;0.47;;;0.43;;
35699;SDS011;21818;51.078;12.108;2022-10-16T10:58:48;1.00;;;0.40;;
35699;SDS011;21818;51.078;12.108;2022-10-16T11:04:10;0.65;;;0.50;;
35699;SDS011;21818;51.078;12.108;2022-10-16T11:07:41;1.13;;;0.50;;
35699;SDS011;21818;51.078;12.108;2022-10-16T11:10:23;1.33;;;0.70;;
35699;SDS011;21818;51.078;12.108;2022-10-16T11:12:58;1.17;;;0.47;;
35699;SDS011;21818;51.078;12.108;2022-10-16T11:15:41;1.88;;;0.50;;
35699;SDS011;21818;51.078;12.108;2022-10-16T11:18:13;1.00;;;0.50;;
35699;SDS011;21818;51.078;12.108;2022-10-16T11:20:53;0.80;;;0.57;;
35699;SDS011;21818;51.078;12.108;2022-10-16T11:26:02;2.35;;;1.27;;
35699;SDS011;21818;51.078;12.108;2022-10-16T11:28:34;1.00;;;0.50;;
35699;SDS011;21818;51.078;12.108;2022-10-16T11:36:22;1.02;;;0.50;;
35699;SDS011;21818;51.078;12.108;2022-10-16T11:44:02;1.90;;;0.55;;
35699;SDS011;21818;51.078;12.108;2022-10-16T11:46:38;1.23;;;0.40;;
35699;SDS011;21818;51.078;12.108;2022-10-16T11:51:41;1.40;;;0.50;;
35699;SDS011;21818;51.078;12.108;2022-10-16T11:54:16;0.73;;;0.40;;
35699;SDS011;21818;51.078;12.108;2022-10-16T11:56:53;0.80;;;0.40;;
35699;SDS011;21818;51.078;12.108;2022-10-16T11:59:33;0.68;;;0.50;;
35699;SDS011;21818;51.078;12.108;2022-10-16T12:05:15;0.73;;;0.60;;
35699;SDS011;21818;51.078;12.108;2022-10-16T12:08:13;2.10;;;0.57;;
35699;SDS011;21818;51.078;12.108;2022-10-16T12:10:41;1.20;;;0.40;;
35699;SDS011;21818;51.078;12.108;2022-10-16T12:16:03;1.20;;;0.68;;
35699;SDS011;21818;51.078;12.108;2022-10-16T12:18:30;0.70;;;0.65;;
35699;SDS011;21818;51.078;12.108;2022-10-16T12:20:58;1.13;;;0.50;;
35699;SDS011;21818;51.078;12.108;2022-10-16T12:23:30;5.80;;;0.50;;
35699;SDS011;21818;51.078;12.108;2022-10-16T12:25:57;0.38;;;0.35;;
35699;SDS011;21818;51.078;12.108;2022-10-16T12:28:31;1.95;;;0.65;;
35699;SDS011;21818;51.078;12.108;2022-10-16T12:30:59;0.93;;;0.60;;
35699;SDS011;21818;51.078;12.108;2022-10-16T12:33:28;0.60;;;0.50;;
35699;SDS011;21818;51.078;12.108;2022-10-16T12:35:56;0.82;;;0.40;;
35699;SDS011;21818;51.078;12.108;2022-10-16T12:38:36;1.45;;;0.52;;
35699;SDS011;21818;51.078;12.108;2022-10-16T12:41:11;1.70;;;0.50;;
35699;SDS011;21818;51.078;12.108;2022-10-16T12:43:40;0.40;;;0.30;;
35699;SDS011;21818;51.078;12.108;2022-10-16T12:48:34;1.73;;;0.40;;
35699;SDS011;21818;51.078;12.108;2022-10-16T12:59:22;1.08;;;0.60;;
35699;SDS011;21818;51.078;12.108;2022-10-16T13:18:22;0.73;;;0.45;;
35699;SDS011;21818;51.078;12.108;2022-10-16T13:20:56;0.50;;;0.35;;
35699;SDS011;21818;51.078;12.108;2022-10-16T13:23:54;0.30;;;0.30;;
35699;SDS011;21818;51.078;12.108;2022-10-16T13:29:04;1.42;;;0.60;;
35699;SDS011;21818;51.078;12.108;2022-10-16T13:31:30;0.68;;;0.30;;
35699;SDS011;21818;51.078;12.108;2022-10-16T13:33:57;0.43;;;0.30;;
35699;SDS011;21818;51.078;12.108;2022-10-16T13:36:26;0.88;;;0.43;;
35699;SDS011;21818;51.078;12.108;2022-10-16T13:39:10;1.73;;;0.45;;
35699;SDS011;21818;51.078;12.108;2022-10-16T13:42:00;3.03;;;0.50;;
35699;SDS011;21818;51.078;12.108;2022-10-16T13:44:48;0.50;;;0.40;;
35699;SDS011;21818;51.078;12.108;2022-10-16T13:47:25;1.45;;;0.57;;
35699;SDS011;21818;51.078;12.108;2022-10-16T13:50:26;0.95;;;0.30;;
35699;SDS011;21818;51.078;12.108;2022-10-16T13:52:45;1.27;;;0.50;;
35699;SDS011;21818;51.078;12.108;2022-10-16T13:55:14;0.47;;;0.40;;
35699;SDS011;21818;51.078;12.108;2022-10-16T13:57:41;0.50;;;0.35;;
35699;SDS011;21818;51.078;12.108;2022-10-16T14:00:17;0.88;;;0.40;;
35699;SDS011;21818;51.078;12.108;2022-10-16T14:02:43;1.67;;;1.00;;
35699;SDS011;21818;51.078;12.108;2022-10-16T14:05:09;1.25;;;0.40;;
35699;SDS011;21818;51.078;12.108;2022-10-16T14:07:35;0.60;;;0.40;;
35699;SDS011;21818;51.078;12.108;2022-10-16T14:10:06;0.82;;;0.40;;
35699;SDS011;21818;51.078;12.108;2022-10-16T14:12:45;3.03;;;0.55;;
35699;SDS011;21818;51.078;12.108;2022-10-16T14:15:18;0.50;;;0.40;;
35699;SDS011;21818;51.078;12.108;2022-10-16T14:17:45;0.45;;;0.38;;
35699;SDS011;21818;51.078;12.108;2022-10-16T14:20:15;0.82;;;0.57;;
35699;SDS011;21818;51.078;12.108;2022-10-16T14:22:41;0.40;;;0.30;;
35699;SDS011;21818;51.078;12.108;2022-10-16T14:30:28;1.00;;;0.35;;
35699;SDS011;21818;51.078;12.108;2022-10-16T14:32:58;0.40;;;0.40;;
35699;SDS011;21818;51.078;12.108;2022-10-16T14:35:30;0.55;;;0.40;;
35699;SDS011;21818;51.078;12.108;2022-10-16T14:38:01;0.43;;;0.40;;
35699;SDS011;21818;51.078;12.108;2022-10-16T14:40:35;0.30;;;0.30;;
35699;SDS011;21818;51.078;12.108;2022-10-16T14:43:02;1.77;;;0.40;;
35699;SDS011;21818;51.078;12.108;2022-10-16T14:45:30;0.60;;;0.40;;
35699;SDS011;21818;51.078;12.108;2022-10-16T14:48:00;1.02;;;0.40;;
35699;SDS011;21818;51.078;12.108;2022-10-16T14:50:30;1.55;;;0.60;;
35699;SDS011;21818;51.078;12.108;2022-10-16T14:52:55;0.50;;;0.40;;
35699;SDS011;21818;51.078;12.108;2022-10-16T14:55:21;1.65;;;0.35;;
35699;SDS011;21818;51.078;12.108;2022-10-16T14:57:47;0.50;;;0.32;;
35699;SDS011;21818;51.078;12.108;2022-10-16T15:00:18;0.77;;;0.43;;
35699;SDS011;21818;51.078;12.108;2022-10-16T15:02:46;0.50;;;0.25;;
35699;SDS011;21818;51.078;12.108;2022-10-16T15:05:21;0.40;;;0.28;;
35699;SDS011;21818;51.078;12.108;2022-10-16T15:07:51;0.65;;;0.30;;
35699;SDS011;21818;51.078;12.108;2022-10-16T15:10:18;0.77;;;0.45;;
35699;SDS011;21818;51.078;12.108;2022-10-16T15:12:46;0.70;;;0.30;;
35699;SDS011;21818;51.078;12.108;2022-10-16T15:15:24;0.20;;;0.20;;
35699;SDS011;21818;51.078;12.108;2022-10-16T15:17:55;0.50;;;0.40;;
35699;SDS011;21818;51.078;12.108;2022-10-16T15:20:25;0.60;;;0.30;;
35699;SDS011;21818;51.078;12.108;2022-10-16T15:25:30;1.90;;;0.50;;
35699;SDS011;21818;51.078;12.108;2022-10-16T15:28:06;0.50;;;0.40;;
35699;SDS011;21818;51.078;12.108;2022-10-16T15:30:33;0.73;;;0.30;;
35699;SDS011;21818;51.078;12.108;2022-10-16T15:32:59;1.20;;;0.40;;
35699;SDS011;21818;51.078;12.108;2022-10-16T15:35:25;0.85;;;0.57;;
35699;SDS011;21818;51.078;12.108;2022-10-16T15:37:51;0.70;;;0.40;;
35699;SDS011;21818;51.078;12.108;2022-10-16T15:40:17;0.98;;;0.50;;
35699;SDS011;21818;51.078;12.108;2022-10-16T15:42:44;1.25;;;0.43;;
35699;SDS011;21818;51.078;12.108;2022-10-16T15:45:10;0.40;;;0.40;;
35699;SDS011;21818;51.078;12.108;2022-10-16T15:47:37;0.93;;;0.50;;
35699;SDS011;21818;51.078;12.108;2022-10-16T15:50:03;0.60;;;0.45;;
35699;SDS011;21818;51.078;12.108;2022-10-16T15:52:30;0.68;;;0.50;;
35699;SDS011;21818;51.078;12.108;2022-10-16T15:54:57;0.35;;;0.20;;
35699;SDS011;21818;51.078;12.108;2022-10-16T15:57:23;0.65;;;0.22;;
35699;SDS011;21818;51.078;12.108;2022-10-16T15:59:49;0.60;;;0.50;;
35699;SDS011;21818;51.078;12.108;2022-10-16T16:02:15;0.65;;;0.40;;
35699;SDS011;21818;51.078;12.108;2022-10-16T16:04:40;0.80;;;0.43;;
35699;SDS011;21818;51.078;12.108;2022-10-16T16:07:06;3.92;;;0.80;;
35699;SDS011;21818;51.078;12.108;2022-10-16T16:09:32;0.52;;;0.52;;
35699;SDS011;21818;51.078;12.108;2022-10-16T16:11:58;1.65;;;0.47;;
35699;SDS011;21818;51.078;12.108;2022-10-16T16:14:26;1.48;;;0.73;;
35699;SDS011;21818;51.078;12.108;2022-10-16T16:16:53;4.70;;;1.50;;
35699;SDS011;21818;51.078;12.108;2022-10-16T16:19:19;4.50;;;2.35;;
35699;SDS011;21818;51.078;12.108;2022-10-16T16:21:46;11.02;;;4.47;;
35699;SDS011;21818;51.078;12.108;2022-10-16T16:24:12;3.00;;;1.38;;
35699;SDS011;21818;51.078;12.108;2022-10-16T16:26:38;7.22;;;3.88;;
35699;SDS011;21818;51.078;12.108;2022-10-16T16:29:08;8.17;;;4.13;;
35699;SDS011;21818;51.078;12.108;2022-10-16T16:31:38;6.43;;;3.58;;
35699;SDS011;21818;51.078;12.108;2022-10-16T16:34:04;14.25;;;9.82;;
35699;SDS011;21818;51.078;12.108;2022-10-16T16:36:30;11.07;;;9.45;;
35699;SDS011;21818;51.078;12.108;2022-10-16T16:38:57;13.27;;;10.85;;
35699;SDS011;21818;51.078;12.108;2022-10-16T16:41:23;10.43;;;8.85;;
35699;SDS011;21818;51.078;12.108;2022-10-16T16:43:51;10.38;;;8.10;;
35699;SDS011;21818;51.078;12.108;2022-10-16T16:46:17;5.22;;;2.90;;
35699;SDS011;21818;51.078;12.108;2022-10-16T16:48:44;3.38;;;2.05;;
35699;SDS011;21818;51.078;12.108;2022-10-16T16:51:11;4.85;;;3.20;;
35699;SDS011;21818;51.078;12.108;2022-10-16T16:56:07;6.30;;;2.75;;
35699;SDS011;21818;51.078;12.108;2022-10-16T16:58:33;3.92;;;2.50;;
35699;SDS011;21818;51.078;12.108;2022-10-16T17:00:59;3.22;;;2.50;;